createdAt,value
2018-10-18T00:00:44.215Z,25.13
2018-10-18T00:03:12.656Z,22.57
2018-10-18T00:05:41.051Z,22.17
2018-10-18T00:08:09.446Z,21.57
2018-10-18T00:10:39.395Z,21.20
2018-10-18T00:13:08.471Z,21.13
2018-10-18T00:15:36.871Z,20.30
2018-10-18T00:18:05.714Z,19.23
2018-10-18T00:20:34.515Z,19.87
2018-10-18T00:23:03.846Z,18.63
2018-10-18T00:25:32.227Z,17.87
2018-10-18T00:28:00.678Z,16.93
2018-10-18T00:30:29.047Z,16.97
2018-10-18T00:32:57.450Z,16.27
2018-10-18T00:35:26.572Z,17.53
2018-10-18T00:37:55.148Z,16.50
2018-10-18T00:40:23.611Z,14.83
2018-10-18T00:42:51.996Z,14.57
2018-10-18T00:45:20.363Z,14.37
2018-10-18T00:47:48.796Z,14.17
2018-10-18T00:50:17.281Z,13.27
2018-10-18T00:52:45.587Z,13.23
2018-10-18T00:55:13.964Z,12.37
2018-10-18T00:57:42.431Z,11.67
2018-10-18T01:00:11.700Z,12.10
2018-10-18T01:02:39.954Z,11.20
2018-10-18T01:05:08.341Z,11.67
2018-10-18T01:07:36.731Z,10.17
2018-10-18T01:10:05.198Z,10.37
2018-10-18T01:12:33.662Z,9.50
2018-10-18T01:15:02.017Z,9.80
2018-10-18T01:17:30.399Z,9.33
2018-10-18T01:19:58.788Z,9.73
2018-10-18T01:22:27.167Z,9.53
2018-10-18T01:24:55.554Z,9.27
2018-10-18T01:27:23.960Z,8.00
2018-10-18T01:29:52.325Z,8.03
2018-10-18T01:32:20.703Z,8.10
2018-10-18T01:34:49.080Z,7.63
2018-10-18T01:37:18.030Z,8.33
2018-10-18T01:39:46.415Z,8.10
2018-10-18T01:42:14.850Z,7.63
2018-10-18T01:44:43.190Z,7.27
2018-10-18T01:47:11.574Z,6.63
2018-10-18T01:49:39.935Z,7.43
2018-10-18T01:52:08.314Z,6.67
2018-10-18T01:54:36.675Z,6.13
2018-10-18T01:57:05.907Z,6.63
2018-10-18T01:59:34.303Z,6.57
2018-10-18T02:02:02.853Z,5.90
2018-10-18T02:04:31.197Z,5.80
2018-10-18T02:06:59.584Z,6.07
2018-10-18T02:09:27.955Z,5.50
2018-10-18T02:11:56.363Z,4.93
2018-10-18T02:14:24.807Z,5.17
2018-10-18T02:16:53.203Z,5.10
2018-10-18T02:19:21.625Z,4.70
2018-10-18T02:21:50.007Z,5.43
2018-10-18T02:24:18.367Z,5.23
2018-10-18T02:26:46.771Z,4.40
2018-10-18T02:29:15.191Z,4.53
2018-10-18T02:31:43.643Z,4.33
2018-10-18T02:34:12.035Z,4.40
2018-10-18T02:36:40.398Z,4.17
2018-10-18T02:39:09.475Z,4.23
2018-10-18T02:41:38.071Z,4.07
2018-10-18T02:44:06.526Z,4.10
2018-10-18T02:46:35.011Z,4.20
2018-10-18T02:49:03.617Z,4.50
2018-10-18T02:51:31.970Z,3.53
2018-10-18T02:54:00.454Z,3.87
2018-10-18T02:56:28.831Z,6.00
2018-10-18T02:58:57.264Z,3.77
2018-10-18T03:01:25.667Z,6.10
2018-10-18T03:03:54.075Z,7.13
2018-10-18T03:06:22.483Z,8.93
2018-10-18T03:08:50.879Z,11.40
2018-10-18T03:11:19.296Z,13.00
2018-10-18T03:13:47.773Z,12.97
2018-10-18T03:16:16.681Z,12.87
2018-10-18T03:18:46.515Z,13.90
2018-10-18T03:21:15.467Z,10.70
2018-10-18T03:23:43.904Z,11.93
2018-10-18T03:26:12.377Z,11.07
2018-10-18T03:28:40.761Z,10.50
2018-10-18T03:31:09.162Z,9.87
2018-10-18T03:33:37.594Z,10.13
2018-10-18T03:36:06.254Z,10.83
2018-10-18T03:38:34.631Z,10.87
2018-10-18T03:41:03.115Z,11.17
2018-10-18T03:43:31.587Z,12.43
2018-10-18T03:45:59.983Z,9.60
2018-10-18T03:48:29.420Z,9.87
2018-10-18T03:50:58.112Z,10.37
2018-10-18T03:53:26.475Z,11.20
2018-10-18T03:55:55.180Z,11.47
2018-10-18T03:58:23.611Z,13.13
2018-10-18T04:00:52.016Z,13.47
2018-10-18T04:03:20.475Z,14.40
2018-10-18T04:05:49.559Z,12.50
2018-10-18T04:08:18.035Z,12.27
2018-10-18T04:10:46.620Z,12.47
2018-10-18T04:13:16.127Z,11.23
2018-10-18T04:15:44.493Z,14.30
2018-10-18T04:18:12.966Z,12.93
2018-10-18T04:20:41.352Z,13.37
2018-10-18T04:23:09.792Z,15.17
2018-10-18T04:25:39.390Z,16.40
2018-10-18T04:28:07.995Z,14.73
2018-10-18T04:30:36.388Z,14.60
2018-10-18T04:33:05.750Z,14.67
2018-10-18T04:35:35.055Z,14.07
2018-10-18T04:38:05.056Z,11.73
2018-10-18T04:40:33.570Z,13.20
2018-10-18T04:43:02.110Z,14.10
2018-10-18T04:45:30.627Z,11.20
2018-10-18T04:47:59.546Z,12.17
2018-10-18T04:50:27.984Z,22.57
2018-10-18T04:52:56.486Z,37.50
2018-10-18T04:55:24.947Z,39.67
2018-10-18T04:57:54.239Z,47.40
2018-10-18T05:00:22.745Z,45.77
2018-10-18T05:02:51.272Z,43.40
2018-10-18T05:05:36.902Z,45.97
2018-10-18T05:08:05.551Z,40.10
2018-10-18T05:10:34.124Z,40.83
2018-10-18T05:13:02.619Z,41.23
2018-10-18T05:15:30.935Z,39.43
2018-10-18T05:17:59.621Z,40.03
2018-10-18T05:20:27.999Z,50.13
2018-10-18T05:22:56.433Z,75.63
2018-10-18T05:25:24.880Z,69.73
2018-10-18T05:27:53.232Z,66.03
2018-10-18T05:30:21.619Z,62.13
2018-10-18T05:32:50.151Z,62.27
2018-10-18T05:35:18.556Z,63.67
2018-10-18T05:37:46.974Z,63.23
2018-10-18T05:40:15.368Z,60.87
2018-10-18T05:42:43.767Z,60.70
2018-10-18T05:45:12.144Z,58.27
2018-10-18T05:47:40.799Z,60.13
2018-10-18T05:50:10.028Z,62.90
2018-10-18T05:52:38.757Z,69.93
2018-10-18T05:55:08.651Z,77.53
2018-10-18T05:57:37.055Z,77.40
2018-10-18T06:00:08.365Z,79.10
2018-10-18T06:02:36.764Z,76.97
2018-10-18T06:05:06.118Z,74.30
2018-10-18T06:07:34.931Z,76.40
2018-10-18T06:10:03.419Z,76.40
2018-10-18T06:12:31.750Z,75.23
2018-10-18T06:15:00.183Z,72.73
2018-10-18T06:17:28.583Z,72.13
2018-10-18T06:19:56.984Z,68.10
2018-10-18T06:22:25.394Z,70.47
2018-10-18T06:24:53.811Z,70.07
2018-10-18T06:27:22.184Z,69.07
2018-10-18T06:29:50.574Z,67.47
2018-10-18T06:32:18.963Z,64.67
2018-10-18T06:34:47.488Z,66.60
2018-10-18T06:37:15.910Z,64.17
2018-10-18T06:39:46.006Z,64.23
2018-10-18T06:42:14.665Z,63.47
2018-10-18T06:44:43.130Z,65.50
2018-10-18T06:47:11.642Z,89.17
2018-10-18T06:49:40.050Z,93.07
2018-10-18T06:52:08.398Z,96.47
2018-10-18T06:54:37.918Z,95.03
2018-10-18T06:57:07.519Z,92.87
2018-10-18T06:59:36.025Z,98.13
2018-10-18T07:02:05.111Z,88.10
2018-10-18T07:04:34.814Z,87.63
2018-10-18T07:07:03.185Z,89.33
2018-10-18T07:09:31.575Z,88.90
2018-10-18T07:11:59.956Z,79.03
2018-10-18T07:14:28.348Z,95.07
2018-10-18T07:16:57.116Z,101.93
2018-10-18T07:19:26.403Z,102.00
2018-10-18T07:21:55.602Z,95.03
2018-10-18T07:24:24.041Z,91.80
2018-10-18T07:26:52.556Z,85.70
2018-10-18T07:29:20.990Z,89.77
2018-10-18T07:31:49.374Z,90.00
2018-10-18T07:34:18.406Z,84.17
2018-10-18T07:36:47.400Z,77.97
2018-10-18T07:39:16.347Z,81.23
2018-10-18T07:41:45.304Z,75.63
2018-10-18T07:44:13.694Z,76.20
2018-10-18T07:46:42.734Z,73.73
2018-10-18T07:49:11.836Z,73.80
2018-10-18T07:51:40.753Z,74.30
2018-10-18T07:54:09.242Z,66.53
2018-10-18T07:56:37.550Z,72.40
2018-10-18T07:59:06.138Z,70.43
2018-10-18T08:01:34.535Z,67.50
2018-10-18T08:04:02.941Z,69.50
2018-10-18T08:06:31.321Z,69.03
2018-10-18T08:08:59.707Z,60.80
2018-10-18T08:11:28.095Z,63.00
2018-10-18T08:13:56.483Z,58.33
2018-10-18T08:16:24.883Z,70.73
2018-10-18T08:18:53.328Z,74.73
2018-10-18T08:21:21.794Z,72.50
2018-10-18T08:23:50.261Z,63.97
2018-10-18T08:26:18.652Z,69.40
2018-10-18T08:28:47.091Z,65.00
2018-10-18T08:31:15.597Z,59.30
2018-10-18T08:33:43.967Z,56.23
2018-10-18T08:36:12.507Z,55.33
2018-10-18T08:38:41.533Z,53.67
2018-10-18T08:41:10.621Z,53.90
2018-10-18T08:43:39.757Z,54.97
2018-10-18T08:46:08.710Z,51.93
2018-10-18T08:48:38.078Z,53.23
2018-10-18T08:51:06.471Z,44.03
2018-10-18T08:53:34.948Z,41.20
2018-10-18T08:56:03.383Z,36.83
2018-10-18T08:58:32.359Z,35.23
2018-10-18T09:01:01.001Z,33.27
2018-10-18T09:03:29.295Z,30.70
2018-10-18T09:05:57.679Z,28.40
2018-10-18T09:08:26.099Z,26.27
2018-10-18T09:10:54.479Z,26.87
2018-10-18T09:13:22.898Z,29.13
2018-10-18T09:15:51.371Z,26.27
2018-10-18T09:18:20.391Z,24.93
2018-10-18T09:20:48.831Z,24.97
2018-10-18T09:23:17.325Z,22.43
2018-10-18T09:25:45.734Z,21.60
2018-10-18T09:28:14.109Z,21.13
2018-10-18T09:30:42.492Z,26.37
2018-10-18T09:33:11.152Z,38.20
2018-10-18T09:35:39.641Z,27.33
2018-10-18T09:38:08.033Z,29.03
2018-10-18T09:40:36.519Z,35.10
2018-10-18T09:43:05.130Z,34.20
2018-10-18T09:45:33.858Z,29.27
2018-10-18T09:48:02.346Z,28.43
2018-10-18T09:50:30.771Z,26.70
2018-10-18T09:52:59.439Z,25.10
2018-10-18T09:55:28.760Z,25.97
2018-10-18T09:57:57.109Z,21.73
2018-10-18T10:00:30.817Z,21.23
2018-10-18T10:03:04.599Z,20.87
2018-10-18T10:05:33.007Z,19.70
2018-10-18T10:08:01.392Z,20.03
2018-10-18T10:10:29.843Z,23.13
2018-10-18T10:12:58.271Z,36.17
2018-10-18T10:15:26.650Z,41.87
2018-10-18T10:17:55.104Z,44.30
2018-10-18T10:20:23.515Z,34.53
2018-10-18T10:22:51.915Z,30.23
2018-10-18T10:25:21.527Z,28.03
2018-10-18T10:27:49.906Z,32.23
2018-10-18T10:30:18.308Z,36.67
2018-10-18T10:32:46.777Z,33.43
2018-10-18T10:35:15.660Z,30.93
2018-10-18T10:37:44.028Z,30.10
2018-10-18T10:40:12.449Z,27.07
2018-10-18T10:42:41.874Z,23.53
2018-10-18T10:45:11.519Z,22.07
2018-10-18T10:47:39.884Z,20.83
2018-10-18T10:50:09.114Z,17.80
2018-10-18T10:52:37.824Z,17.07
2018-10-18T10:55:07.659Z,16.20
2018-10-18T10:57:36.027Z,16.27
2018-10-18T11:00:04.496Z,15.43
2018-10-18T11:02:32.835Z,14.23
2018-10-18T11:05:01.579Z,13.53
2018-10-18T11:07:29.943Z,12.77
2018-10-18T11:09:58.373Z,11.83
2018-10-18T11:12:26.761Z,12.87
2018-10-18T11:14:55.186Z,13.40
2018-10-18T11:17:23.559Z,12.03
2018-10-18T11:19:51.963Z,11.20
2018-10-18T11:22:20.357Z,12.03
2018-10-18T11:24:48.907Z,12.87
2018-10-18T11:27:17.289Z,10.97
2018-10-18T11:29:45.707Z,10.03
2018-10-18T11:32:14.159Z,9.77
2018-10-18T11:34:42.517Z,9.20
2018-10-18T11:37:10.952Z,8.87
2018-10-18T11:39:39.352Z,9.00
2018-10-18T11:42:07.794Z,11.87
2018-10-18T11:44:39.095Z,10.53
2018-10-18T11:47:09.020Z,5.17
2018-10-18T11:49:37.712Z,4.20
2018-10-18T11:52:06.305Z,4.00
2018-10-18T11:54:34.658Z,2.63
2018-10-18T11:57:03.255Z,2.17
2018-10-18T11:59:31.651Z,1.83
2018-10-18T12:02:00.069Z,2.17
2018-10-18T12:04:28.568Z,2.30
2018-10-18T12:06:56.975Z,1.93
2018-10-18T12:09:25.363Z,1.97
2018-10-18T12:11:53.722Z,1.80
2018-10-18T12:14:22.104Z,1.80
2018-10-18T12:16:50.523Z,1.63
2018-10-18T12:19:18.908Z,1.70
2018-10-18T12:21:47.324Z,7.47
2018-10-18T12:24:15.715Z,5.80
2018-10-18T12:26:44.149Z,6.60
2018-10-18T12:29:12.628Z,6.73
2018-10-18T12:31:41.009Z,5.23
2018-10-18T12:34:09.479Z,3.20
2018-10-18T12:36:38.367Z,2.97
2018-10-18T12:39:08.512Z,1.93
2018-10-18T12:41:36.919Z,1.40
2018-10-18T12:44:05.324Z,1.57
2018-10-18T12:46:33.667Z,1.70
2018-10-18T12:49:02.122Z,1.50
2018-10-18T12:51:30.606Z,1.53
2018-10-18T12:53:59.047Z,0.97
2018-10-18T12:56:27.555Z,1.10
2018-10-18T12:58:55.939Z,1.43
2018-10-18T13:01:24.353Z,1.10
2018-10-18T13:03:52.745Z,1.20
2018-10-18T13:06:21.212Z,1.23
2018-10-18T13:08:49.598Z,1.30
2018-10-18T13:11:18.422Z,1.00
2018-10-18T13:13:46.832Z,1.10
2018-10-18T13:16:15.226Z,1.50
2018-10-18T13:18:43.668Z,2.37
2018-10-18T13:21:12.051Z,1.37
2018-10-18T13:23:40.442Z,1.20
2018-10-18T13:26:08.953Z,1.13
2018-10-18T13:28:37.241Z,1.27
2018-10-18T13:31:05.929Z,1.20
2018-10-18T13:33:34.312Z,1.40
2018-10-18T13:36:02.762Z,0.90
2018-10-18T13:38:31.096Z,1.30
2018-10-18T13:40:59.482Z,1.47
2018-10-18T13:43:28.109Z,1.03
2018-10-18T13:45:56.491Z,1.23
2018-10-18T13:48:24.977Z,1.30
2018-10-18T13:50:53.525Z,1.00
2018-10-18T13:53:21.913Z,0.93
2018-10-18T13:55:50.345Z,1.20
2018-10-18T13:58:18.787Z,1.10
2018-10-18T14:00:47.152Z,1.03
2018-10-18T14:03:15.656Z,1.20
2018-10-18T14:05:44.109Z,1.50
2018-10-18T14:08:12.545Z,0.90
2018-10-18T14:10:40.887Z,0.83
2018-10-18T14:13:09.289Z,8.30
2018-10-18T14:15:37.707Z,9.50
2018-10-18T14:18:06.119Z,9.00
2018-10-18T14:20:34.496Z,5.10
2018-10-18T14:23:03.043Z,3.53
2018-10-18T14:25:31.378Z,2.43
2018-10-18T14:27:59.882Z,1.77
2018-10-18T14:30:28.391Z,1.90
2018-10-18T14:32:56.687Z,1.43
2018-10-18T14:35:25.075Z,1.53
2018-10-18T14:37:53.611Z,1.90
2018-10-18T14:40:22.091Z,1.80
2018-10-18T14:42:50.484Z,1.37
2018-10-18T14:45:18.856Z,1.17
2018-10-18T14:47:47.286Z,1.50
2018-10-18T14:50:15.735Z,1.57
2018-10-18T14:52:44.398Z,1.30
2018-10-18T14:55:12.819Z,1.30
2018-10-18T14:57:41.820Z,1.20
2018-10-18T15:00:11.780Z,1.60
2018-10-18T15:02:40.280Z,2.00
2018-10-18T15:05:09.688Z,10.47
2018-10-18T15:07:38.673Z,5.43
2018-10-18T15:10:08.696Z,7.83
2018-10-18T15:12:37.148Z,10.93
2018-10-18T15:15:06.265Z,8.30
2018-10-18T15:17:34.664Z,7.23
2018-10-18T15:20:03.224Z,13.27
2018-10-18T15:22:31.696Z,10.63
2018-10-18T15:25:00.174Z,9.60
2018-10-18T15:27:28.573Z,7.70
2018-10-18T15:29:57.039Z,8.33
2018-10-18T15:32:25.470Z,6.10
2018-10-18T15:34:53.878Z,6.40
2018-10-18T15:37:22.259Z,7.57
2018-10-18T15:39:50.713Z,7.70
2018-10-18T15:42:19.126Z,6.43
2018-10-18T15:44:47.564Z,5.73
2018-10-18T15:47:16.175Z,5.43
2018-10-18T15:49:44.533Z,5.47
2018-10-18T15:52:13.130Z,6.13
2018-10-18T15:54:41.768Z,8.30
2018-10-18T15:57:10.180Z,5.83
2018-10-18T15:59:38.594Z,5.53
2018-10-18T16:02:07.011Z,5.00
2018-10-18T16:04:35.438Z,5.20
2018-10-18T16:07:04.255Z,5.40
2018-10-18T16:09:32.676Z,4.90
2018-10-18T16:12:01.156Z,4.10
2018-10-18T16:14:29.703Z,4.57
2018-10-18T16:16:58.140Z,5.23
2018-10-18T16:19:28.813Z,5.77
2018-10-18T16:21:57.204Z,6.80
2018-10-18T16:24:25.781Z,12.60
2018-10-18T16:26:54.104Z,10.57
2018-10-18T16:29:22.610Z,11.57
2018-10-18T16:31:51.107Z,15.00
2018-10-18T16:34:19.511Z,18.37
2018-10-18T16:36:47.916Z,13.90
2018-10-18T16:39:16.340Z,13.47
2018-10-18T16:41:45.158Z,11.70
2018-10-18T16:44:13.596Z,13.30
2018-10-18T16:46:41.992Z,13.13
2018-10-18T16:49:10.395Z,13.43
2018-10-18T16:51:38.782Z,13.10
2018-10-18T16:54:07.592Z,13.07
2018-10-18T16:56:35.891Z,12.37
2018-10-18T16:59:04.302Z,11.07
2018-10-18T17:01:32.799Z,10.37
2018-10-18T17:04:01.504Z,13.97
2018-10-18T17:06:29.968Z,19.90
2018-10-18T17:08:58.539Z,20.00
2018-10-18T17:11:27.232Z,13.70
2018-10-18T17:13:55.676Z,12.87
2018-10-18T17:16:24.041Z,12.63
2018-10-18T17:18:52.470Z,22.97
2018-10-18T17:21:21.026Z,29.03
2018-10-18T17:23:49.422Z,40.87
2018-10-18T17:26:18.053Z,99.90
2018-10-18T17:28:46.345Z,91.40
2018-10-18T17:31:14.769Z,66.23
2018-10-18T17:33:43.172Z,43.37
2018-10-18T17:36:11.638Z,41.00
2018-10-18T17:38:40.044Z,40.07
2018-10-18T17:41:08.435Z,43.57
2018-10-18T17:43:36.836Z,40.53
2018-10-18T17:46:05.666Z,41.50
2018-10-18T17:48:34.763Z,41.60
2018-10-18T17:51:03.216Z,46.67
2018-10-18T17:53:31.624Z,41.17
2018-10-18T17:56:00.646Z,39.43
2018-10-18T17:58:29.071Z,37.63
2018-10-18T18:00:57.475Z,37.00
2018-10-18T18:03:25.992Z,31.93
2018-10-18T18:05:54.464Z,33.90
2018-10-18T18:08:22.891Z,33.67
2018-10-18T18:10:51.293Z,40.73
2018-10-18T18:13:19.691Z,44.93
2018-10-18T18:15:48.167Z,39.90
2018-10-18T18:18:16.509Z,33.33
2018-10-18T18:20:44.974Z,33.03
2018-10-18T18:23:13.363Z,33.00
2018-10-18T18:25:43.278Z,30.30
2018-10-18T18:28:11.716Z,29.27
2018-10-18T18:30:40.159Z,30.90
2018-10-18T18:33:08.602Z,28.90
2018-10-18T18:35:36.976Z,29.77
2018-10-18T18:38:06.287Z,29.87
2018-10-18T18:40:34.720Z,28.87
2018-10-18T18:43:03.825Z,28.53
2018-10-18T18:45:35.487Z,29.27
2018-10-18T18:48:04.592Z,28.97
2018-10-18T18:50:33.139Z,31.07
2018-10-18T18:53:01.668Z,33.23
2018-10-18T18:55:30.124Z,33.67
2018-10-18T18:57:58.703Z,36.20
2018-10-18T19:00:27.150Z,36.00
2018-10-18T19:02:55.552Z,36.07
2018-10-18T19:05:23.982Z,36.60
2018-10-18T19:07:52.383Z,33.37
2018-10-18T19:10:21.056Z,35.37
2018-10-18T19:12:49.480Z,33.97
2018-10-18T19:15:17.926Z,38.13
2018-10-18T19:17:46.454Z,38.63
2018-10-18T19:20:14.868Z,34.30
2018-10-18T19:22:43.400Z,33.07
2018-10-18T19:25:11.781Z,32.70
2018-10-18T19:27:40.211Z,29.83
2018-10-18T19:30:10.097Z,29.90
2018-10-18T19:32:38.500Z,28.87
2018-10-18T19:35:06.996Z,27.80
2018-10-18T19:37:35.401Z,25.53
2018-10-18T19:40:05.046Z,23.47
2018-10-18T19:42:33.505Z,23.83
2018-10-18T19:45:02.463Z,22.47
2018-10-18T19:47:31.004Z,23.20
2018-10-18T19:49:59.644Z,23.17
2018-10-18T19:52:28.377Z,24.27
2018-10-18T19:54:56.687Z,25.30
2018-10-18T19:57:25.183Z,29.63
2018-10-18T19:59:53.694Z,28.33
2018-10-18T20:02:22.112Z,31.13
2018-10-18T20:04:50.568Z,27.93
2018-10-18T20:07:19.083Z,29.30
2018-10-18T20:09:47.485Z,29.60
2018-10-18T20:12:16.005Z,30.20
2018-10-18T20:14:44.539Z,28.13
2018-10-18T20:17:13.167Z,26.23
2018-10-18T20:19:41.582Z,24.97
2018-10-18T20:22:12.077Z,25.33
2018-10-18T20:24:40.639Z,28.83
2018-10-18T20:27:09.971Z,29.23
2018-10-18T20:29:38.548Z,29.30
2018-10-18T20:32:06.974Z,29.40
2018-10-18T20:34:35.711Z,26.40
2018-10-18T20:37:04.964Z,26.27
2018-10-18T20:39:33.985Z,25.37
2018-10-18T20:42:02.419Z,24.20
2018-10-18T20:44:30.801Z,23.43
2018-10-18T20:46:59.446Z,22.67
2018-10-18T20:49:27.695Z,21.90
2018-10-18T20:51:56.161Z,20.77
2018-10-18T20:54:24.551Z,30.13
2018-10-18T20:56:52.943Z,32.93
2018-10-18T20:59:21.523Z,24.43
2018-10-18T21:01:49.979Z,25.00
2018-10-18T21:04:19.077Z,24.73
2018-10-18T21:06:47.725Z,24.37
2018-10-18T21:09:16.477Z,24.23
2018-10-18T21:11:44.999Z,23.77
2018-10-18T21:14:13.412Z,25.07
2018-10-18T21:16:41.940Z,23.90
2018-10-18T21:19:11.122Z,23.90
2018-10-18T21:21:39.607Z,24.40
2018-10-18T21:24:07.953Z,22.73
2018-10-18T21:26:37.107Z,20.77
2018-10-18T21:29:05.545Z,20.47
2018-10-18T21:31:34.000Z,22.30
2018-10-18T21:34:02.431Z,21.40
2018-10-18T21:36:30.812Z,26.23
2018-10-18T21:38:59.222Z,23.23
2018-10-18T21:41:27.635Z,25.40
2018-10-18T21:43:56.030Z,25.83
2018-10-18T21:46:24.402Z,24.17
2018-10-18T21:48:52.874Z,22.20
2018-10-18T21:51:21.208Z,21.93
2018-10-18T21:53:49.608Z,23.40
2018-10-18T21:56:18.000Z,25.40
2018-10-18T21:58:46.383Z,25.40
2018-10-18T22:01:14.780Z,27.27
2018-10-18T22:03:43.254Z,37.07
2018-10-18T22:06:11.652Z,38.60
2018-10-18T22:08:40.031Z,32.87
2018-10-18T22:11:09.011Z,63.43
2018-10-18T22:13:37.649Z,133.20
2018-10-18T22:16:06.203Z,136.63
2018-10-18T22:18:34.630Z,117.30
2018-10-18T22:21:03.095Z,122.47
2018-10-18T22:23:31.495Z,114.27
2018-10-18T22:25:59.909Z,105.73
2018-10-18T22:28:28.298Z,85.60
2018-10-18T22:30:56.746Z,74.50
2018-10-18T22:33:25.136Z,70.20
2018-10-18T22:35:53.519Z,67.73
2018-10-18T22:38:21.927Z,69.27
2018-10-18T22:40:50.315Z,64.80
2018-10-18T22:43:18.700Z,57.90
2018-10-18T22:45:52.479Z,68.43
2018-10-18T22:48:20.917Z,72.57
2018-10-18T22:50:49.359Z,87.83
2018-10-18T22:53:17.756Z,83.37
2018-10-18T22:55:46.160Z,83.03
2018-10-18T22:58:14.572Z,78.40
2018-10-18T23:00:47.538Z,95.30
2018-10-18T23:03:16.976Z,82.30
2018-10-18T23:05:45.541Z,72.07
2018-10-18T23:08:14.245Z,71.90
2018-10-18T23:10:42.633Z,60.20
2018-10-18T23:13:11.049Z,68.30
2018-10-18T23:15:39.714Z,106.13
2018-10-18T23:18:08.897Z,114.40
2018-10-18T23:20:37.893Z,78.90
2018-10-18T23:23:07.088Z,84.50
2018-10-18T23:25:35.631Z,82.83
2018-10-18T23:28:04.092Z,85.67
2018-10-18T23:30:32.582Z,86.87
2018-10-18T23:33:00.980Z,82.90
2018-10-18T23:35:29.498Z,93.93
2018-10-18T23:37:58.536Z,93.20
2018-10-18T23:40:26.980Z,88.77
2018-10-18T23:42:55.416Z,89.33
2018-10-18T23:45:23.988Z,89.93
2018-10-18T23:47:53.252Z,90.17
2018-10-18T23:50:22.253Z,89.37
2018-10-18T23:52:50.695Z,73.73
2018-10-18T23:55:19.128Z,61.17
2018-10-18T23:57:47.646Z,57.63
